Time;durP1;ratioP1;P1;durP2;ratioP2;P2;SDS_P1;SDS_P2;PMS_P1;PMS_P2;Temp;Humidity;BMP_temperature;BMP_pressure;BME280_temperature;BME280_humidity;BME280_pressure;Samples;Min_cycle;Max_cycle;Signal;HPM_P1;HPM_P2
2023/03/05 00:02:08;;;;;;;0.88;0.88;;;-3.10;99.90;;;;;;5074529;28;20676;-69
2023/03/05 00:04:34;;;;;;;0.52;0.52;;;-3.00;99.90;;;;;;5074246;28;20228;-69
2023/03/05 00:07:00;;;;;;;0.60;0.60;;;-3.00;99.90;;;;;;5074578;28;20193;-69
2023/03/05 00:09:26;;;;;;;0.55;0.55;;;-3.00;99.90;;;;;;5074098;28;20216;-69
2023/03/05 00:11:51;;;;;;;0.70;0.70;;;-2.90;99.90;;;;;;5074541;28;20190;-68
2023/03/05 00:14:17;;;;;;;0.60;0.60;;;-2.80;99.90;;;;;;5074369;28;20265;-69
2023/03/05 00:16:43;;;;;;;0.80;0.80;;;-2.80;99.90;;;;;;5074337;28;20189;-69
2023/03/05 00:19:10;;;;;;;0.80;0.80;;;-2.70;99.90;;;;;;5074554;28;20220;-68
2023/03/05 00:21:38;;;;;;;0.82;0.82;;;-2.70;99.90;;;;;;5074137;28;20215;-68
2023/03/05 00:24:07;;;;;;;0.70;0.70;;;-2.70;99.90;;;;;;5073737;28;20568;-68
2023/03/05 00:26:35;;;;;;;0.80;0.80;;;-2.70;99.90;;;;;;5073806;28;20192;-69
2023/03/05 00:29:01;;;;;;;0.80;0.80;;;-2.70;99.90;;;;;;5074133;28;20195;-69
2023/03/05 00:31:29;;;;;;;0.73;0.73;;;-2.60;99.90;;;;;;5073972;28;20235;-69
2023/03/05 00:33:58;;;;;;;0.70;0.70;;;-2.70;99.90;;;;;;5072930;28;20292;-69
2023/03/05 00:36:24;;;;;;;0.70;0.70;;;-2.70;99.90;;;;;;5073158;28;20196;-68
2023/03/05 00:38:50;;;;;;;2.70;2.47;;;-2.70;99.90;;;;;;5073937;28;20204;-68
2023/03/05 00:41:16;;;;;;;0.73;0.73;;;-2.70;99.90;;;;;;5055711;28;20246;-67
2023/03/05 00:43:42;;;;;;;0.80;0.80;;;-2.70;99.90;;;;;;5073506;28;20236;-69
2023/03/05 00:46:08;;;;;;;0.68;0.68;;;-2.80;99.90;;;;;;5073785;28;20203;-68
2023/03/05 00:48:34;;;;;;;0.80;0.80;;;-2.80;99.90;;;;;;5073514;28;20192;-68
2023/03/05 00:50:59;;;;;;;0.75;0.75;;;-2.80;99.90;;;;;;5073679;28;20211;-68
2023/03/05 00:53:25;;;;;;;0.80;0.80;;;-2.80;99.90;;;;;;5073554;28;20331;-68
2023/03/05 00:55:51;;;;;;;0.70;0.70;;;-2.90;99.90;;;;;;5073647;28;20218;-68
2023/03/05 00:58:17;;;;;;;0.70;0.70;;;-2.90;99.90;;;;;;5073469;28;20195;-68
2023/03/05 01:00:43;;;;;;;0.63;0.63;;;-2.90;99.90;;;;;;5055818;28;20201;-74
2023/03/05 01:03:09;;;;;;;0.63;0.63;;;-2.90;99.90;;;;;;5073755;28;20310;-74
2023/03/05 01:05:34;;;;;;;0.60;0.60;;;-2.90;99.90;;;;;;5073616;28;20299;-74
2023/03/05 01:08:00;;;;;;;0.85;0.85;;;-3.00;99.90;;;;;;5055642;28;20614;-75
2023/03/05 01:10:26;;;;;;;0.90;0.90;;;-3.00;99.90;;;;;;5073485;28;20262;-74
2023/03/05 01:12:53;;;;;;;0.80;0.80;;;-3.10;99.90;;;;;;5073502;28;20212;-74
2023/03/05 01:15:19;;;;;;;0.80;0.80;;;-3.20;99.90;;;;;;5073630;28;20199;-73
2023/03/05 01:17:45;;;;;;;0.80;0.80;;;-3.10;99.90;;;;;;5073474;28;20275;-74
2023/03/05 01:20:13;;;;;;;0.80;0.80;;;-3.10;99.90;;;;;;5072785;28;20200;-74
2023/03/05 01:22:39;;;;;;;0.80;0.80;;;-3.10;99.90;;;;;;5073297;28;20275;-74
2023/03/05 01:25:05;;;;;;;0.70;0.70;;;-3.10;99.90;;;;;;5073144;28;20603;-74
2023/03/05 01:27:32;;;;;;;0.75;0.75;;;-3.10;99.90;;;;;;5055285;28;20215;-74
2023/03/05 01:29:58;;;;;;;0.90;0.90;;;-3.10;99.90;;;;;;5055329;28;20261;-73
2023/03/05 01:32:23;;;;;;;0.80;0.80;;;-3.10;99.90;;;;;;5073258;28;20185;-74
2023/03/05 01:34:49;;;;;;;0.80;0.80;;;-3.20;99.90;;;;;;5073607;28;20652;-74
2023/03/05 01:37:15;;;;;;;0.70;0.70;;;-3.10;99.90;;;;;;5072878;28;20204;-74
2023/03/05 01:39:40;;;;;;;0.80;0.80;;;-3.10;99.90;;;;;;5054823;28;20215;-74
2023/03/05 01:42:06;;;;;;;1.00;1.00;;;-3.20;99.90;;;;;;5073283;28;20193;-74
2023/03/05 01:44:33;;;;;;;0.80;0.80;;;-3.20;99.90;;;;;;5055024;28;20207;-74
2023/03/05 01:46:58;;;;;;;0.80;0.80;;;-3.20;99.90;;;;;;5072955;28;20203;-74
2023/03/05 01:49:32;;;;;;;0.70;0.70;;;-3.20;99.90;;;;;;5071934;28;20287;-74
2023/03/05 01:52:16;;;;;;;0.80;0.80;;;-3.20;99.90;;;;;;5073082;28;20663;-74
2023/03/05 01:55:12;;;;;;;0.80;0.80;;;-3.30;99.90;;;;;;5072887;28;20250;-74
2023/03/05 01:57:43;;;;;;;0.70;0.70;;;-3.30;99.90;;;;;;5072771;28;20624;-74
2023/03/05 02:00:15;;;;;;;0.80;0.80;;;-3.30;99.90;;;;;;5073070;28;20596;-74
2023/03/05 02:02:43;;;;;;;0.80;0.80;;;-3.20;99.90;;;;;;5088624;22;20681;-71
2023/03/05 02:05:15;;;;;;;0.80;0.80;;;-3.30;99.90;;;;;;5071065;28;20193;-71
2023/03/05 02:07:42;;;;;;;0.73;0.73;;;-3.30;99.90;;;;;;5072073;28;20224;-71
2023/03/05 02:10:15;;;;;;;0.60;0.60;;;-3.30;99.90;;;;;;5070954;28;20647;-71
2023/03/05 02:12:41;;;;;;;0.80;0.80;;;-3.30;99.90;;;;;;5072126;28;20647;-71
2023/03/05 02:15:08;;;;;;;0.80;0.80;;;-3.40;99.90;;;;;;5072351;28;20196;-71
2023/03/05 02:17:33;;;;;;;0.60;0.60;;;-3.30;99.90;;;;;;5071707;28;20246;-72
2023/03/05 02:20:26;;;;;;;0.70;0.70;;;-3.20;99.90;;;;;;5072329;28;20196;-72
2023/03/05 02:22:55;;;;;;;0.70;0.70;;;-3.20;99.90;;;;;;5065643;28;20208;-72
2023/03/05 02:25:27;;;;;;;0.88;0.88;;;-3.20;99.90;;;;;;5051923;28;20272;-72
2023/03/05 02:28:12;;;;;;;0.65;0.65;;;-3.20;99.90;;;;;;5050869;28;20251;-71
2023/03/05 02:30:38;;;;;;;0.63;0.63;;;-3.20;99.90;;;;;;5051941;28;20209;-71
2023/03/05 02:33:04;;;;;;;0.70;0.70;;;-3.20;99.90;;;;;;5052157;28;20853;-71
2023/03/05 02:35:36;;;;;;;1.00;1.00;;;-3.10;99.90;;;;;;5051864;28;20618;-71
2023/03/05 02:38:01;;;;;;;0.75;0.75;;;-3.00;99.90;;;;;;5068246;28;20572;-71
2023/03/05 02:40:27;;;;;;;0.70;0.70;;;-3.00;99.90;;;;;;5072172;28;20204;-71
2023/03/05 02:42:53;;;;;;;0.60;0.60;;;-3.10;99.90;;;;;;5071963;28;20709;-71
2023/03/05 02:45:19;;;;;;;0.77;0.77;;;-3.10;99.90;;;;;;5072021;28;20712;-71
2023/03/05 02:47:44;;;;;;;0.70;0.70;;;-3.10;99.90;;;;;;5071943;28;20193;-72
2023/03/05 02:50:11;;;;;;;0.80;0.80;;;-3.10;99.90;;;;;;5072073;28;20220;-72
2023/03/05 02:52:45;;;;;;;0.60;0.60;;;-3.20;99.90;;;;;;5071918;28;20287;-71
2023/03/05 02:55:11;;;;;;;0.70;0.70;;;-3.20;99.90;;;;;;5072017;28;20568;-71
2023/03/05 02:57:36;;;;;;;0.60;0.60;;;-3.20;99.90;;;;;;5071678;28;20189;-72
2023/03/05 03:00:04;;;;;;;0.80;0.80;;;-3.20;99.90;;;;;;5073055;28;20193;-71
2023/03/05 03:02:29;;;;;;;0.80;0.80;;;-3.30;99.90;;;;;;5074409;28;20228;-72
2023/03/05 03:04:55;;;;;;;0.80;0.80;;;-3.30;99.90;;;;;;5075501;28;20201;-72
2023/03/05 03:07:21;;;;;;;0.80;0.80;;;-3.10;99.90;;;;;;5075578;28;20197;-72
2023/03/05 03:09:46;;;;;;;0.80;0.80;;;-3.10;99.90;;;;;;5075671;28;20229;-72
2023/03/05 03:12:12;;;;;;;0.90;0.90;;;-3.10;99.90;;;;;;5073977;28;20192;-72
2023/03/05 03:14:41;;;;;;;0.70;0.70;;;-3.10;99.90;;;;;;5073915;28;20199;-72
2023/03/05 03:17:12;;;;;;;0.70;0.70;;;-3.10;99.90;;;;;;5085444;28;20203;-73
2023/03/05 03:22:34;;;;;;;0.80;0.80;;;-3.00;99.90;;;;;;5054049;28;20679;-72
2023/03/05 03:25:00;;;;;;;0.80;0.80;;;-3.00;99.90;;;;;;5075241;28;20563;-72
2023/03/05 03:27:26;;;;;;;0.80;0.80;;;-3.00;99.90;;;;;;5074977;28;20275;-72
2023/03/05 03:29:52;;;;;;;0.70;0.70;;;-3.10;99.90;;;;;;5073767;28;20226;-72
2023/03/05 03:32:17;;;;;;;0.75;0.75;;;-3.10;99.90;;;;;;5073900;28;20197;-72
2023/03/05 03:34:43;;;;;;;0.70;0.70;;;-3.10;99.90;;;;;;5074875;28;20185;-73
2023/03/05 03:37:09;;;;;;;0.60;0.60;;;-3.10;99.90;;;;;;5074824;28;20663;-73
2023/03/05 03:39:35;;;;;;;0.68;0.68;;;-3.00;99.90;;;;;;5074803;28;20189;-73
2023/03/05 03:42:01;;;;;;;0.80;0.80;;;-3.10;99.90;;;;;;5073612;28;20203;-72
2023/03/05 03:44:27;;;;;;;0.70;0.70;;;-3.10;99.90;;;;;;5074694;28;20197;-73
2023/03/05 03:46:53;;;;;;;0.70;0.70;;;-3.10;99.90;;;;;;5074954;28;20196;-73
2023/03/05 03:49:21;;;;;;;0.70;0.70;;;-3.20;99.90;;;;;;5074542;28;20184;-73
2023/03/05 03:51:48;;;;;;;0.70;0.70;;;-3.20;99.90;;;;;;5074744;28;20200;-73
2023/03/05 03:54:15;;;;;;;0.63;0.63;;;-3.20;99.90;;;;;;5074658;28;20225;-73
2023/03/05 03:56:41;;;;;;;0.70;0.70;;;-3.20;99.90;;;;;;5074341;28;20203;-73
2023/03/05 03:59:08;;;;;;;0.70;0.70;;;-3.20;99.90;;;;;;5074599;28;20185;-72
2023/03/05 04:01:34;;;;;;;0.60;0.60;;;-3.20;99.90;;;;;;5072056;28;20690;-72
2023/03/05 04:04:00;;;;;;;0.73;0.73;;;-3.10;99.90;;;;;;5072355;28;20229;-72
2023/03/05 04:06:25;;;;;;;0.60;0.60;;;-3.10;99.90;;;;;;5074278;28;20725;-72
2023/03/05 04:08:51;;;;;;;0.80;0.80;;;-3.10;99.90;;;;;;5072944;28;20224;-73
2023/03/05 04:11:18;;;;;;;0.70;0.70;;;-3.00;99.90;;;;;;5073398;28;20205;-72
2023/03/05 04:13:45;;;;;;;0.82;0.82;;;-3.00;99.90;;;;;;5085902;28;20199;-72
2023/03/05 04:16:11;;;;;;;0.70;0.70;;;-3.00;99.90;;;;;;5094473;28;20192;-73
2023/03/05 04:18:37;;;;;;;0.60;0.60;;;-3.00;99.90;;;;;;5094208;28;20188;-73
2023/03/05 04:21:04;;;;;;;0.80;0.80;;;-3.00;99.90;;;;;;5094217;28;20225;-73
2023/03/05 04:23:30;;;;;;;0.70;0.70;;;-3.00;99.90;;;;;;5089376;28;20237;-73
2023/03/05 04:25:56;;;;;;;0.80;0.80;;;-3.10;99.90;;;;;;5074062;28;20192;-72
2023/03/05 04:28:22;;;;;;;0.80;0.80;;;-3.10;99.90;;;;;;5073703;28;20223;-72
2023/03/05 04:30:47;;;;;;;0.60;0.60;;;-3.10;99.90;;;;;;5072662;28;20212;-73
2023/03/05 04:33:13;;;;;;;0.70;0.70;;;-3.10;99.90;;;;;;5073875;28;20564;-72
2023/03/05 04:35:39;;;;;;;0.60;0.60;;;-3.10;99.90;;;;;;5073554;28;20515;-73
2023/03/05 04:38:05;;;;;;;0.70;0.70;;;-3.20;99.90;;;;;;5073869;28;20600;-72
2023/03/05 04:40:31;;;;;;;0.70;0.70;;;-3.40;99.90;;;;;;5072283;28;20326;-72
2023/03/05 04:42:56;;;;;;;0.60;0.60;;;-3.40;99.90;;;;;;5072290;28;20197;-73
2023/03/05 04:45:25;;;;;;;0.70;0.70;;;-3.60;99.90;;;;;;5072193;28;20224;-73
2023/03/05 04:47:51;;;;;;;0.70;0.70;;;-3.70;99.90;;;;;;5073855;28;20720;-72
2023/03/05 04:50:17;;;;;;;0.65;0.65;;;-3.80;99.90;;;;;;5073902;28;20197;-72
2023/03/05 04:52:44;;;;;;;0.70;0.70;;;-3.90;99.90;;;;;;5073277;28;20229;-72
2023/03/05 04:55:12;;;;;;;0.80;0.80;;;-4.10;99.90;;;;;;5072265;28;20243;-72
2023/03/05 04:57:38;;;;;;;0.80;0.80;;;-4.10;99.90;;;;;;5072003;28;20192;-72
2023/03/05 05:00:06;;;;;;;0.70;0.70;;;-4.20;99.90;;;;;;5073385;28;20224;-73
2023/03/05 05:02:33;;;;;;;0.90;0.90;;;-4.40;99.90;;;;;;5071181;28;20236;-72
2023/03/05 05:04:58;;;;;;;0.70;0.70;;;-4.50;99.90;;;;;;5071537;28;20197;-72
2023/03/05 05:07:24;;;;;;;0.80;0.80;;;-4.70;99.90;;;;;;5071848;28;20207;-72
2023/03/05 05:09:50;;;;;;;0.80;0.80;;;-4.70;99.90;;;;;;5083643;28;20239;-72
2023/03/05 05:12:16;;;;;;;0.80;0.80;;;-4.70;99.90;;;;;;5093439;28;20242;-73
2023/03/05 05:14:42;;;;;;;0.70;0.70;;;-4.70;99.90;;;;;;5093002;28;20220;-72
2023/03/05 05:17:08;;;;;;;0.73;0.73;;;-4.60;99.90;;;;;;5092018;28;20196;-72
2023/03/05 05:19:37;;;;;;;0.70;0.70;;;-4.60;99.90;;;;;;5092928;28;20211;-72
2023/03/05 05:22:03;;;;;;;0.70;0.70;;;-4.60;99.90;;;;;;5091921;28;20722;-73
2023/03/05 05:24:29;;;;;;;0.75;0.75;;;-4.50;99.90;;;;;;5079750;28;20335;-72
2023/03/05 05:26:55;;;;;;;0.70;0.70;;;-4.60;99.90;;;;;;5091690;28;20325;-72
2023/03/05 05:29:22;;;;;;;0.80;0.80;;;-4.70;99.90;;;;;;5091517;28;20204;-72
2023/03/05 05:31:48;;;;;;;0.80;0.80;;;-4.80;99.90;;;;;;5093137;28;20267;-73
2023/03/05 05:34:24;;;;;;;0.82;0.82;;;-4.80;99.90;;;;;;5092151;28;20221;-72
2023/03/05 05:36:54;;;;;;;0.80;0.80;;;-4.90;99.90;;;;;;5093142;28;20272;-72
2023/03/05 05:39:20;;;;;;;0.80;0.80;;;-4.90;99.90;;;;;;5092810;28;20227;-72
2023/03/05 05:41:50;;;;;;;0.80;0.80;;;-4.90;99.90;;;;;;5091949;28;20232;-72
2023/03/05 05:44:16;;;;;;;0.60;0.60;;;-5.00;99.90;;;;;;5093159;28;20195;-71
2023/03/05 05:46:41;;;;;;;0.80;0.80;;;-5.00;99.90;;;;;;5092736;28;20202;-72
2023/03/05 05:49:10;;;;;;;0.90;0.90;;;-5.00;99.90;;;;;;5091598;28;20283;-72
2023/03/05 05:51:36;;;;;;;0.85;0.85;;;-5.00;99.90;;;;;;5091403;28;20296;-72
2023/03/05 05:54:02;;;;;;;0.70;0.70;;;-5.00;99.90;;;;;;5091600;28;20283;-72
2023/03/05 05:56:28;;;;;;;0.90;0.90;;;-5.00;99.90;;;;;;5091490;28;20195;-71
2023/03/05 05:58:54;;;;;;;0.80;0.80;;;-4.90;99.90;;;;;;5091740;28;20199;-72
2023/03/05 06:01:23;;;;;;;1.07;1.07;;;-4.80;99.90;;;;;;5087646;28;20225;-72
2023/03/05 06:03:50;;;;;;;0.80;0.80;;;-4.80;99.90;;;;;;5072290;28;20235;-72
2023/03/05 06:06:18;;;;;;;0.80;0.80;;;-4.80;99.90;;;;;;5085912;28;20200;-72
2023/03/05 06:08:44;;;;;;;0.90;0.90;;;-4.80;99.90;;;;;;5091256;28;20196;-72
2023/03/05 06:11:10;;;;;;;0.70;0.70;;;-4.70;99.90;;;;;;5092839;28;20336;-72
2023/03/05 06:13:39;;;;;;;0.90;0.90;;;-4.80;99.90;;;;;;5092586;28;20658;-72
2023/03/05 06:16:11;;;;;;;0.80;0.80;;;-4.70;99.90;;;;;;5091339;28;20199;-72
2023/03/05 06:18:43;;;;;;;1.87;1.73;;;-4.70;99.90;;;;;;5092703;28;20272;-71
2023/03/05 06:21:32;;;;;;;0.90;0.90;;;-4.80;99.90;;;;;;5091082;28;20195;-71
2023/03/05 06:23:58;;;;;;;0.80;0.80;;;-4.80;99.90;;;;;;5078874;28;20210;-72
2023/03/05 06:26:29;;;;;;;0.77;0.77;;;-4.70;99.90;;;;;;5052315;28;20200;-72
2023/03/05 06:28:56;;;;;;;0.80;0.80;;;-4.70;99.90;;;;;;5052254;28;20656;-72
2023/03/05 06:31:26;;;;;;;0.77;0.77;;;-4.60;99.90;;;;;;5050710;28;20308;-72
2023/03/05 06:34:00;;;;;;;0.80;0.80;;;-4.60;99.90;;;;;;5067604;28;20283;-72
2023/03/05 06:36:27;;;;;;;0.80;0.80;;;-4.50;99.90;;;;;;5055388;28;20268;-72
2023/03/05 06:38:53;;;;;;;0.70;0.70;;;-4.50;99.90;;;;;;5056071;28;20189;-72
2023/03/05 06:41:30;;;;;;;0.80;0.80;;;-4.50;99.90;;;;;;5056064;28;20609;-72
2023/03/05 06:43:56;;;;;;;0.85;0.85;;;-4.30;99.90;;;;;;5071366;28;20670;-72
2023/03/05 06:46:28;;;;;;;0.70;0.70;;;-4.20;99.90;;;;;;5071477;28;20205;-72
2023/03/05 06:49:01;;;;;;;0.70;0.70;;;-4.10;99.90;;;;;;5055736;28;20212;-72
2023/03/05 06:51:35;;;;;;;0.70;0.70;;;-4.00;99.90;;;;;;5055698;28;20688;-72
2023/03/05 06:54:05;;;;;;;0.80;0.80;;;-3.80;99.90;;;;;;5055891;28;20193;-73
2023/03/05 06:56:35;;;;;;;0.80;0.80;;;-3.70;99.90;;;;;;5055681;28;20268;-72
2023/03/05 06:59:05;;;;;;;0.90;0.90;;;-3.50;99.90;;;;;;5070939;28;20223;-72
2023/03/05 07:01:31;;;;;;;0.77;0.77;;;-3.30;99.90;;;;;;5078801;28;20208;-73
2023/03/05 07:03:59;;;;;;;0.82;0.82;;;-3.20;99.90;;;;;;5094259;28;20309;-72
2023/03/05 07:06:28;;;;;;;0.77;0.77;;;-3.10;99.90;;;;;;5094424;28;20214;-72
2023/03/05 07:08:55;;;;;;;0.80;0.80;;;-3.00;99.90;;;;;;5095730;28;20196;-72
2023/03/05 07:11:23;;;;;;;0.70;0.70;;;-3.00;99.90;;;;;;5095384;28;20235;-72
2023/03/05 07:13:52;;;;;;;0.70;0.70;;;-3.10;99.90;;;;;;5095759;28;20199;-73
2023/03/05 07:16:21;;;;;;;0.70;0.70;;;-3.10;99.90;;;;;;5092282;28;20203;-75
2023/03/05 07:18:48;;;;;;;0.90;0.90;;;-3.10;99.90;;;;;;5075259;28;20193;-75
2023/03/05 07:21:21;;;;;;;0.80;0.80;;;-3.10;99.90;;;;;;5074386;28;20235;-75
2023/03/05 07:23:47;;;;;;;0.80;0.80;;;-3.20;99.90;;;;;;5075164;28;20636;-75
2023/03/05 07:26:14;;;;;;;0.70;0.70;;;-3.20;99.90;;;;;;5074011;28;20561;-76
2023/03/05 07:28:50;;;;;;;0.70;0.70;;;-3.10;99.90;;;;;;5075032;28;20204;-76
2023/03/05 07:31:19;;;;;;;0.60;0.60;;;-3.20;99.90;;;;;;5074097;28;20548;-75
2023/03/05 07:33:49;;;;;;;0.75;0.75;;;-3.10;99.90;;;;;;5074870;28;20231;-76
2023/03/05 07:36:15;;;;;;;0.70;0.70;;;-2.90;99.90;;;;;;5075191;28;20188;-76
2023/03/05 07:38:41;;;;;;;0.73;0.73;;;-2.90;99.90;;;;;;5074688;28;20185;-75
2023/03/05 07:41:10;;;;;;;0.90;0.90;;;-2.80;99.90;;;;;;5074939;28;20200;-76
2023/03/05 07:43:37;;;;;;;0.80;0.80;;;-2.80;99.90;;;;;;5073464;28;20200;-76
2023/03/05 07:46:14;;;;;;;0.70;0.70;;;-2.70;99.90;;;;;;5074704;28;20284;-76
2023/03/05 07:48:39;;;;;;;0.80;0.80;;;-2.80;99.90;;;;;;5074515;28;20599;-75
2023/03/05 07:51:08;;;;;;;0.80;0.80;;;-2.80;99.90;;;;;;5074477;28;20209;-75
2023/03/05 07:53:34;;;;;;;1.13;0.85;;;-2.80;99.90;;;;;;5074103;28;20196;-75
2023/03/05 07:56:00;;;;;;;0.65;0.65;;;-2.80;99.90;;;;;;5073436;28;20616;-75
2023/03/05 07:58:26;;;;;;;0.73;0.73;;;-2.90;99.90;;;;;;5083646;28;20656;-75
2023/03/05 08:00:52;;;;;;;0.70;0.70;;;-3.00;99.90;;;;;;5094628;28;20231;-76
2023/03/05 08:03:18;;;;;;;0.70;0.70;;;-3.00;99.90;;;;;;5092657;28;20224;-75
2023/03/05 08:05:44;;;;;;;0.70;0.70;;;-3.00;99.90;;;;;;5094502;28;20249;-76
2023/03/05 08:08:10;;;;;;;0.90;0.90;;;-3.10;99.90;;;;;;5094454;28;20211;-75
2023/03/05 08:10:36;;;;;;;0.60;0.60;;;-3.00;99.90;;;;;;5094132;28;20212;-75
2023/03/05 08:13:02;;;;;;;0.60;0.60;;;-2.80;99.90;;;;;;5093160;28;20196;-76
2023/03/05 08:15:29;;;;;;;0.73;0.73;;;-2.50;99.90;;;;;;5075488;28;20197;-76
2023/03/05 08:17:59;;;;;;;0.70;0.70;;;-2.20;99.90;;;;;;5074148;28;20184;-75
2023/03/05 08:20:25;;;;;;;0.77;0.77;;;-2.00;99.90;;;;;;5073855;28;20677;-76
2023/03/05 08:22:51;;;;;;;0.70;0.70;;;-1.70;99.90;;;;;;5073983;28;20279;-76
2023/03/05 08:25:17;;;;;;;0.70;0.70;;;-1.60;99.90;;;;;;5074148;28;20280;-76
2023/03/05 08:27:45;;;;;;;0.80;0.80;;;-1.30;99.90;;;;;;5072490;28;20651;-76
2023/03/05 08:30:13;;;;;;;0.60;0.60;;;-1.20;99.90;;;;;;5073774;28;20227;-76
2023/03/05 08:32:39;;;;;;;0.70;0.70;;;-1.10;99.80;;;;;;5072121;28;20201;-76
2023/03/05 08:35:05;;;;;;;0.60;0.60;;;-0.90;99.90;;;;;;5072387;28;20197;-76
2023/03/05 08:37:32;;;;;;;0.70;0.70;;;-0.70;99.90;;;;;;5072169;28;20193;-76
2023/03/05 08:39:58;;;;;;;0.60;0.60;;;-0.60;99.40;;;;;;5073700;28;20204;-76
2023/03/05 08:42:24;;;;;;;0.70;0.70;;;-0.50;98.80;;;;;;5073314;28;20196;-76
2023/03/05 08:44:50;;;;;;;0.60;0.60;;;-0.40;98.50;;;;;;5073496;28;20204;-76
2023/03/05 08:47:17;;;;;;;0.55;0.55;;;-0.40;98.80;;;;;;5072255;28;20201;-76
2023/03/05 08:49:43;;;;;;;0.60;0.60;;;-0.10;99.40;;;;;;5073179;28;20207;-76
2023/03/05 08:52:09;;;;;;;0.70;0.70;;;0.20;98.70;;;;;;5073530;28;20272;-76
2023/03/05 08:54:36;;;;;;;0.70;0.70;;;0.30;97.60;;;;;;5081474;28;20192;-76
2023/03/05 08:57:02;;;;;;;0.63;0.63;;;0.20;97.20;;;;;;5093419;28;20218;-76
2023/03/05 08:59:28;;;;;;;0.70;0.70;;;0.40;98.10;;;;;;5092974;28;20663;-77
2023/03/05 09:01:53;;;;;;;0.63;0.63;;;0.50;97.30;;;;;;5091773;28;20198;-75
2023/03/05 09:04:19;;;;;;;0.75;0.75;;;0.50;97.30;;;;;;5093187;28;20184;-76
2023/03/05 09:06:45;;;;;;;0.60;0.60;;;0.70;98.00;;;;;;5093401;28;20188;-76
2023/03/05 09:09:12;;;;;;;0.60;0.60;;;1.00;97.00;;;;;;5086217;28;20702;-75
2023/03/05 09:11:38;;;;;;;0.60;0.60;;;1.00;96.60;;;;;;5072621;28;20691;-76
2023/03/05 09:14:05;;;;;;;0.60;0.60;;;1.10;96.40;;;;;;5072983;28;20238;-76
2023/03/05 09:16:32;;;;;;;0.60;0.60;;;1.10;96.30;;;;;;5071519;28;20228;-76
2023/03/05 09:18:58;;;;;;;0.63;0.63;;;1.30;96.90;;;;;;5072894;28;20193;-75
2023/03/05 09:21:24;;;;;;;0.70;0.70;;;1.50;96.10;;;;;;5072635;28;20207;-77
2023/03/05 09:23:50;;;;;;;0.52;0.52;;;1.80;96.30;;;;;;5072709;28;20287;-76
2023/03/05 09:26:19;;;;;;;0.80;0.80;;;1.90;95.60;;;;;;5072224;28;20483;-74
2023/03/05 09:28:45;;;;;;;0.80;0.80;;;1.90;95.50;;;;;;5071151;28;20565;-75
2023/03/05 09:31:11;;;;;;;0.75;0.75;;;1.60;96.00;;;;;;5072438;28;20679;-75
2023/03/05 09:33:37;;;;;;;0.60;0.60;;;1.70;95.50;;;;;;5071410;28;20284;-77
2023/03/05 09:36:05;;;;;;;0.70;0.70;;;1.80;95.70;;;;;;5072832;28;20263;-77
2023/03/05 09:38:31;;;;;;;0.60;0.60;;;2.10;96.00;;;;;;5072503;28;20192;-76
2023/03/05 09:41:13;;;;;;;0.60;0.60;;;2.50;95.50;;;;;;5072681;28;20188;-76
2023/03/05 09:43:57;;;;;;;0.50;0.50;;;2.70;95.00;;;;;;5072460;28;20193;-77
2023/03/05 09:46:42;;;;;;;0.52;0.52;;;2.70;94.50;;;;;;5071952;28;20668;-75
2023/03/05 09:49:26;;;;;;;0.65;0.65;;;2.90;95.40;;;;;;5072449;28;20188;-77
2023/03/05 09:52:10;;;;;;;0.50;0.50;;;3.20;95.30;;;;;;5091132;28;20654;-77
2023/03/05 09:54:42;;;;;;;0.70;0.70;;;3.40;94.70;;;;;;5092430;28;20241;-77
2023/03/05 09:57:21;;;;;;;0.65;0.65;;;3.30;94.90;;;;;;5091245;28;20200;-76
2023/03/05 09:59:58;;;;;;;0.65;0.65;;;3.50;94.70;;;;;;5091242;28;20192;-77
2023/03/05 10:02:29;;;;;;;0.70;0.70;;;3.70;95.50;;;;;;5091559;28;20957;-77
2023/03/05 10:05:08;;;;;;;0.80;0.80;;;3.80;95.20;;;;;;5091365;28;20705;-78
2023/03/05 10:07:38;;;;;;;0.55;0.55;;;3.70;95.90;;;;;;5078273;28;20193;-76
2023/03/05 10:10:16;;;;;;;0.57;0.57;;;3.50;95.70;;;;;;5070095;28;20216;-76
2023/03/05 10:12:49;;;;;;;0.50;0.50;;;3.50;95.90;;;;;;5071980;28;20184;-76
2023/03/05 10:15:30;;;;;;;0.73;0.73;;;3.40;95.90;;;;;;5070951;28;20189;-77
2023/03/05 10:18:17;;;;;;;0.50;0.50;;;3.40;96.80;;;;;;5072286;28;20566;-77
2023/03/05 10:20:57;;;;;;;0.70;0.70;;;3.30;96.90;;;;;;5071959;28;20245;-76
2023/03/05 10:24:03;;;;;;;0.60;0.60;;;3.50;96.10;;;;;;5071613;28;20600;-76
2023/03/05 10:26:54;;;;;;;0.60;0.60;;;3.70;97.10;;;;;;5071898;28;20563;-77
2023/03/05 10:29:58;;;;;;;0.75;0.75;;;3.70;96.10;;;;;;5070526;28;20196;-77
2023/03/05 10:32:54;;;;;;;0.70;0.70;;;4.00;98.00;;;;;;5070437;28;20188;-76
2023/03/05 10:35:59;;;;;;;0.70;0.70;;;4.30;96.40;;;;;;5070584;28;20292;-76
2023/03/05 10:38:43;;;;;;;0.50;0.50;;;4.10;96.00;;;;;;5056454;28;20200;-76
2023/03/05 10:41:20;;;;;;;0.50;0.50;;;4.00;96.70;;;;;;5071894;28;20196;-76
2023/03/05 10:44:02;;;;;;;0.70;0.70;;;4.10;96.90;;;;;;5071666;28;20652;-77
2023/03/05 10:46:35;;;;;;;0.50;0.50;;;4.20;97.50;;;;;;5076071;28;20215;-76
2023/03/05 10:49:20;;;;;;;0.70;0.70;;;4.20;97.00;;;;;;5091920;28;20196;-75
2023/03/05 10:52:14;;;;;;;0.52;0.52;;;3.70;96.80;;;;;;5090967;28;20218;-76
2023/03/05 10:54:42;;;;;;;0.60;0.60;;;3.30;97.70;;;;;;5091707;28;20220;-76
2023/03/05 10:57:18;;;;;;;0.70;0.70;;;3.00;98.40;;;;;;5092251;28;20551;-76
2023/03/05 11:00:12;;;;;;;0.60;0.60;;;3.10;98.90;;;;;;5091802;28;20283;-76
2023/03/05 11:02:52;;;;;;;0.60;0.60;;;2.80;98.80;;;;;;5083021;28;20224;-76
2023/03/05 11:05:50;;;;;;;0.57;0.57;;;2.50;99.30;;;;;;5071610;28;20563;-76
2023/03/05 11:08:21;;;;;;;0.70;0.70;;;2.30;99.30;;;;;;5071038;28;20727;-76
2023/03/05 11:11:00;;;;;;;0.70;0.70;;;2.20;98.90;;;;;;5070179;28;20363;-76
2023/03/05 11:13:28;;;;;;;0.70;0.70;;;2.20;99.20;;;;;;5071365;28;20214;-76
2023/03/05 11:16:05;;;;;;;0.70;0.70;;;2.70;99.50;;;;;;5071662;28;20531;-76
2023/03/05 11:18:46;;;;;;;0.60;0.60;;;3.00;98.20;;;;;;5071373;28;20664;-76
2023/03/05 11:21:22;;;;;;;0.63;0.63;;;2.90;98.00;;;;;;5073058;28;20196;-76
2023/03/05 11:24:18;;;;;;;0.63;0.63;;;2.80;99.00;;;;;;5069012;28;20249;-76
2023/03/05 11:27:25;;;;;;;0.63;0.63;;;2.80;99.10;;;;;;5054776;28;20198;-76
2023/03/05 11:29:51;;;;;;;0.50;0.50;;;3.30;97.80;;;;;;5037101;28;20613;-75
2023/03/05 11:32:27;;;;;;;0.60;0.60;;;3.80;98.20;;;;;;5053653;28;20216;-76
2023/03/05 11:34:56;;;;;;;0.60;0.60;;;4.10;97.50;;;;;;5070240;28;20562;-76
2023/03/05 11:37:26;;;;;;;0.60;0.60;;;3.70;96.90;;;;;;5069586;28;20304;-75
2023/03/05 11:40:23;;;;;;;0.60;0.60;;;3.30;97.60;;;;;;5066742;28;20196;-76
2023/03/05 11:42:56;;;;;;;0.65;0.65;;;3.80;98.10;;;;;;5080200;28;20203;-76
2023/03/05 11:45:26;;;;;;;0.70;0.70;;;4.00;95.80;;;;;;5095146;28;20288;-76
2023/03/05 11:48:16;;;;;;;0.75;0.75;;;3.90;96.20;;;;;;5095214;28;20199;-76
2023/03/05 11:50:43;;;;;;;0.70;0.70;;;4.20;96.10;;;;;;5093869;28;20609;-76
2023/03/05 11:53:28;;;;;;;0.80;0.80;;;4.70;95.10;;;;;;5094910;28;20210;-76
2023/03/05 11:59:23;;;;;;;0.98;0.98;;;4.80;95.80;;;;;;5064147;28;20428;-75
2023/03/05 12:01:52;;;;;;;0.95;0.90;;;5.10;95.00;;;;;;5051414;28;20833;-76
2023/03/05 12:04:19;;;;;;;0.70;0.70;;;5.20;94.70;;;;;;5063837;28;20286;-76
2023/03/05 12:06:59;;;;;;;0.80;0.80;;;4.70;93.90;;;;;;5072888;28;20220;-76
2023/03/05 12:09:48;;;;;;;0.70;0.70;;;4.20;94.20;;;;;;5074046;28;20193;-76
2023/03/05 12:12:36;;;;;;;0.60;0.60;;;4.00;95.00;;;;;;5072921;28;20196;-76
2023/03/05 12:15:11;;;;;;;0.60;0.60;;;3.90;95.30;;;;;;5074471;28;20193;-76
2023/03/05 12:17:48;;;;;;;0.60;0.60;;;4.30;95.40;;;;;;5073968;28;20184;-76
2023/03/05 12:20:32;;;;;;;0.60;0.60;;;4.60;94.90;;;;;;5074085;28;20558;-76
2023/03/05 12:22:58;;;;;;;0.60;0.60;;;4.30;94.70;;;;;;5073749;28;20455;-76
2023/03/05 12:25:45;;;;;;;0.80;0.80;;;4.70;94.00;;;;;;5072314;28;20197;-76
2023/03/05 12:28:28;;;;;;;0.80;0.80;;;4.90;92.30;;;;;;5072868;28;20209;-76
2023/03/05 12:31:25;;;;;;;0.50;0.50;;;4.80;92.80;;;;;;5073830;28;20204;-77
2023/03/05 12:33:51;;;;;;;0.60;0.60;;;4.80;93.10;;;;;;5072361;28;20209;-76
2023/03/05 12:36:20;;;;;;;0.70;0.70;;;4.80;92.60;;;;;;5073600;28;20648;-76
2023/03/05 12:38:56;;;;;;;0.60;0.60;;;4.80;92.60;;;;;;5076488;28;20585;-77
2023/03/05 12:41:22;;;;;;;0.60;0.60;;;5.00;92.40;;;;;;5093701;28;20204;-76
2023/03/05 12:44:05;;;;;;;0.60;0.60;;;4.80;91.80;;;;;;5093841;28;20192;-76
2023/03/05 12:46:37;;;;;;;0.40;0.40;;;4.00;91.40;;;;;;5092528;28;20540;-77
2023/03/05 12:49:18;;;;;;;0.50;0.50;;;3.70;92.20;;;;;;5093730;28;20251;-77
2023/03/05 12:51:52;;;;;;;0.55;0.55;;;3.70;91.90;;;;;;5092213;28;20218;-77
2023/03/05 12:54:23;;;;;;;0.70;0.70;;;4.00;93.00;;;;;;5093802;28;20183;-76
2023/03/05 12:56:51;;;;;;;0.70;0.70;;;4.20;93.10;;;;;;5093361;28;20290;-77
2023/03/05 12:59:20;;;;;;;0.70;0.70;;;4.20;93.00;;;;;;5093896;28;20556;-76
2023/03/05 13:01:53;;;;;;;0.60;0.60;;;4.20;92.60;;;;;;5092012;28;20196;-76
2023/03/05 13:04:28;;;;;;;0.60;0.60;;;4.20;92.50;;;;;;5093327;28;20204;-75
2023/03/05 13:07:04;;;;;;;0.43;0.43;;;3.70;93.00;;;;;;5093457;28;20195;-76
2023/03/05 13:09:35;;;;;;;0.70;0.70;;;3.40;93.20;;;;;;5091786;28;20200;-76
2023/03/05 13:12:02;;;;;;;0.60;0.60;;;3.20;93.30;;;;;;5092081;28;20207;-76
2023/03/05 13:14:55;;;;;;;0.60;0.60;;;3.10;93.20;;;;;;5085323;28;20674;-76